Time;durP1;ratioP1;P1;durP2;ratioP2;P2;SDS_P1;SDS_P2;PMS_P1;PMS_P2;Temp;Humidity;BMP_temperature;BMP_pressure;BME280_temperature;BME280_humidity;BME280_pressure;Samples;Min_cycle;Max_cycle;Signal;HPM_P1;HPM_P2
2021/11/30 00:00:52;;;;;;;14.00;2.50;;;;;;;;;;5028619;28;20063;-65
2021/11/30 00:03:18;;;;;;;8.57;2.20;;;;;;;;;;5061801;28;20048;-65
2021/11/30 00:05:45;;;;;;;6.50;2.08;;;;;;;;;;5054197;28;20064;-65
2021/11/30 00:08:13;;;;;;;11.38;2.10;;;;;;;;;;5035267;28;20433;-65
2021/11/30 00:10:46;;;;;;;11.70;2.80;;;;;;;;;;5060192;28;20048;-65
2021/11/30 00:13:12;;;;;;;11.30;2.78;;;;;;;;;;5052043;28;20041;-65
2021/11/30 00:15:39;;;;;;;12.85;3.42;;;;;;;;;;5060314;28;20059;-65
2021/11/30 00:18:05;;;;;;;10.13;2.97;;;;;;;;;;5033697;28;20557;-65
2021/11/30 00:20:32;;;;;;;8.90;3.38;;;;;;;;;;5059770;28;20051;-65
2021/11/30 00:22:58;;;;;;;14.02;3.58;;;;;;;;;;5054706;28;20044;-65
2021/11/30 00:25:24;;;;;;;12.80;3.92;;;;;;;;;;5061368;28;20087;-65
2021/11/30 00:27:52;;;;;;;8.85;3.88;;;;;;;;;;5061917;28;20044;-66
2021/11/30 00:30:18;;;;;;;14.90;4.40;;;;;;;;;;5049347;28;20048;-65
2021/11/30 00:32:49;;;;;;;12.43;5.03;;;;;;;;;;5055656;28;20067;-65
2021/11/30 00:35:15;;;;;;;17.48;5.60;;;;;;;;;;5052523;28;20054;-65
2021/11/30 00:37:42;;;;;;;14.40;5.38;;;;;;;;;;5060928;28;20506;-65
2021/11/30 00:40:09;;;;;;;21.83;6.07;;;;;;;;;;5053571;28;20352;-65
2021/11/30 00:42:36;;;;;;;13.77;5.05;;;;;;;;;;5057644;28;20060;-65
2021/11/30 00:45:05;;;;;;;16.33;5.75;;;;;;;;;;5054269;28;20336;-66
2021/11/30 00:47:31;;;;;;;;;;;;;;;;;;5053062;28;20341;-65
2021/11/30 00:49:59;;;;;;;13.27;4.50;;;;;;;;;;5057326;28;19928;-65
2021/11/30 00:52:25;;;;;;;16.13;5.22;;;;;;;;;;5049485;28;20049;-65
2021/11/30 00:54:52;;;;;;;13.85;6.05;;;;;;;;;;5056937;28;20052;-65
2021/11/30 00:57:20;;;;;;;16.02;5.45;;;;;;;;;;5046248;28;20049;-65
2021/11/30 00:59:46;;;;;;;12.70;5.05;;;;;;;;;;5052467;28;20056;-65
2021/11/30 01:02:12;;;;;;;14.98;4.72;;;;;;;;;;5057888;28;20520;-65
2021/11/30 01:04:40;;;;;;;13.85;4.43;;;;;;;;;;5046153;28;20121;-65
2021/11/30 01:07:09;;;;;;;12.75;4.65;;;;;;;;;;5059032;28;20052;-65
2021/11/30 01:09:36;;;;;;;13.57;4.63;;;;;;;;;;5051313;28;20520;-64
2021/11/30 01:12:02;;;;;;;19.15;5.50;;;;;;;;;;5051436;28;20044;-65
2021/11/30 01:14:29;;;;;;;11.80;4.45;;;;;;;;;;5044151;28;20056;-65
2021/11/30 01:16:55;;;;;;;12.73;4.88;;;;;;;;;;5056430;28;20056;-64
2021/11/30 01:19:21;;;;;;;11.73;5.40;;;;;;;;;;5056150;28;20485;-64
2021/11/30 01:21:48;;;;;;;11.25;4.80;;;;;;;;;;5049016;28;20056;-65
2021/11/30 01:24:14;;;;;;;10.63;4.80;;;;;;;;;;5059822;28;20059;-65
2021/11/30 01:26:40;;;;;;;10.85;4.45;;;;;;;;;;5043076;28;20492;-65
2021/11/30 01:29:07;;;;;;;13.43;4.82;;;;;;;;;;5057615;28;20067;-65
2021/11/30 01:31:33;;;;;;;14.18;4.80;;;;;;;;;;5050414;28;20053;-64
2021/11/30 01:34:00;;;;;;;11.07;4.63;;;;;;;;;;5058588;28;20067;-65
2021/11/30 01:36:26;;;;;;;9.50;4.57;;;;;;;;;;5059959;28;20059;-67
2021/11/30 01:38:52;;;;;;;11.32;4.72;;;;;;;;;;5046618;28;20052;-66
2021/11/30 01:41:19;;;;;;;10.38;3.97;;;;;;;;;;5050246;28;20053;-66
2021/11/30 01:43:47;;;;;;;10.00;4.45;;;;;;;;;;5050911;28;20049;-65
2021/11/30 01:46:26;;;;;;;11.43;4.65;;;;;;;;;;5060286;28;20052;-65
2021/11/30 01:51:34;;;;;;;18.90;5.25;;;;;;;;;;5059912;28;20045;-65
2021/11/30 01:54:01;;;;;;;17.33;6.25;;;;;;;;;;5057169;28;20052;-65
2021/11/30 01:56:27;;;;;;;19.63;5.82;;;;;;;;;;5048997;28;20053;-65
2021/11/30 01:58:53;;;;;;;24.95;7.10;;;;;;;;;;5061245;28;20139;-64
2021/11/30 02:01:20;;;;;;;16.95;6.70;;;;;;;;;;5054792;28;20060;-64
2021/11/30 02:03:47;;;;;;;28.83;7.88;;;;;;;;;;5059942;28;20851;-64
2021/11/30 02:06:14;;;;;;;26.85;7.72;;;;;;;;;;5053251;28;20045;-65
2021/11/30 02:08:40;;;;;;;21.63;7.28;;;;;;;;;;5052226;28;20052;-64
2021/11/30 02:11:07;;;;;;;25.45;8.50;;;;;;;;;;5060652;28;20433;-64
2021/11/30 02:13:33;;;;;;;23.38;7.60;;;;;;;;;;5052618;28;20044;-64
2021/11/30 02:16:02;;;;;;;23.70;8.63;;;;;;;;;;5060059;28;20059;-64
2021/11/30 02:18:29;;;;;;;27.55;8.63;;;;;;;;;;5052870;28;20068;-64
2021/11/30 02:20:57;;;;;;;23.42;9.15;;;;;;;;;;5055160;28;20410;-66
2021/11/30 02:23:32;;;;;;;20.02;6.45;;;;;;;;;;5047512;28;20984;-65
2021/11/30 02:25:59;;;;;;;24.27;8.23;;;;;;;;;;5059425;28;20044;-65
2021/11/30 02:28:26;;;;;;;25.88;9.43;;;;;;;;;;5060587;28;20854;-64
2021/11/30 02:30:52;;;;;;;20.85;8.27;;;;;;;;;;5052586;28;20048;-64
2021/11/30 02:33:18;;;;;;;22.05;7.90;;;;;;;;;;5042204;28;20048;-66
2021/11/30 02:35:45;;;;;;;18.95;7.97;;;;;;;;;;5047828;28;20075;-65
2021/11/30 02:38:11;;;;;;;20.77;8.05;;;;;;;;;;5055097;28;20044;-63
2021/11/30 02:40:38;;;;;;;17.52;7.85;;;;;;;;;;5051793;28;20641;-65
2021/11/30 02:43:04;;;;;;;15.02;7.10;;;;;;;;;;5060541;28;20090;-66
2021/11/30 02:45:30;;;;;;;16.33;8.98;;;;;;;;;;5060430;28;20049;-66
2021/11/30 02:47:57;;;;;;;24.95;8.18;;;;;;;;;;5050126;28;20490;-66
2021/11/30 02:50:25;;;;;;;20.73;9.57;;;;;;;;;;5051970;28;20052;-66
2021/11/30 02:52:52;;;;;;;20.80;10.52;;;;;;;;;;5051188;28;20048;-66
2021/11/30 02:55:18;;;;;;;16.02;8.73;;;;;;;;;;5059562;28;20048;-66
2021/11/30 02:57:46;;;;;;;19.73;9.80;;;;;;;;;;5050902;28;20047;-66
2021/11/30 03:00:12;;;;;;;16.65;9.38;;;;;;;;;;5059686;28;20060;-66
2021/11/30 03:02:38;;;;;;;18.90;9.75;;;;;;;;;;5055041;28;20053;-66
2021/11/30 03:05:05;;;;;;;17.92;9.52;;;;;;;;;;5048195;28;20052;-66
2021/11/30 03:07:38;;;;;;;20.83;11.02;;;;;;;;;;5060066;28;20170;-65
2021/11/30 03:10:12;;;;;;;20.08;9.82;;;;;;;;;;5052236;28;20048;-66
2021/11/30 03:12:39;;;;;;;16.80;9.80;;;;;;;;;;5059203;28;20044;-66
2021/11/30 03:15:06;;;;;;;17.50;9.85;;;;;;;;;;5052192;28;20048;-66
2021/11/30 03:17:33;;;;;;;22.55;12.45;;;;;;;;;;5052198;28;20051;-63
2021/11/30 03:19:59;;;;;;;25.95;12.63;;;;;;;;;;5049305;28;20048;-63
2021/11/30 03:22:25;;;;;;;16.27;11.05;;;;;;;;;;5058178;28;20056;-66
2021/11/30 03:24:51;;;;;;;16.33;10.05;;;;;;;;;;5059578;28;20492;-64
2021/11/30 03:27:18;;;;;;;17.60;11.35;;;;;;;;;;5053692;28;20151;-66
2021/11/30 03:29:44;;;;;;;19.20;11.90;;;;;;;;;;5056652;28;20048;-66
2021/11/30 03:34:56;;;;;;;18.90;12.60;;;;;;;;;;5060394;28;20056;-66
2021/11/30 03:37:22;;;;;;;21.10;11.90;;;;;;;;;;5035546;28;20056;-63
2021/11/30 03:39:49;;;;;;;19.67;12.40;;;;;;;;;;5060028;28;20052;-63
2021/11/30 03:42:15;;;;;;;19.67;12.30;;;;;;;;;;5060722;28;20056;-66
2021/11/30 03:44:42;;;;;;;20.58;12.68;;;;;;;;;;5048788;28;20718;-66
2021/11/30 03:47:08;;;;;;;17.83;12.30;;;;;;;;;;5036773;28;20052;-66
2021/11/30 03:49:34;;;;;;;16.90;13.05;;;;;;;;;;5052926;28;20453;-66
2021/11/30 03:52:04;;;;;;;19.33;12.02;;;;;;;;;;5059607;28;20413;-65
2021/11/30 03:54:30;;;;;;;17.75;12.65;;;;;;;;;;5050742;28;20064;-65
2021/11/30 03:56:57;;;;;;;17.58;12.70;;;;;;;;;;5055790;28;20060;-65
2021/11/30 03:59:23;;;;;;;17.63;13.40;;;;;;;;;;5034005;28;20056;-66
2021/11/30 04:01:50;;;;;;;15.68;11.10;;;;;;;;;;5051259;28;20803;-65
2021/11/30 04:04:21;;;;;;;15.80;10.88;;;;;;;;;;5058219;28;20164;-66
2021/11/30 04:06:48;;;;;;;21.10;13.60;;;;;;;;;;5049507;28;20052;-65
2021/11/30 04:09:14;;;;;;;19.63;13.52;;;;;;;;;;5058915;28;20060;-66
2021/11/30 04:11:41;;;;;;;19.27;13.32;;;;;;;;;;5044522;28;20387;-66
2021/11/30 04:14:07;;;;;;;17.92;13.45;;;;;;;;;;5054570;28;20048;-65
2021/11/30 04:16:34;;;;;;;17.08;12.07;;;;;;;;;;5059101;28;20958;-65
2021/11/30 04:19:01;;;;;;;18.33;13.02;;;;;;;;;;5050679;28;20049;-66
2021/11/30 04:21:27;;;;;;;16.08;11.82;;;;;;;;;;5058472;28;20045;-65
2021/11/30 04:23:55;;;;;;;18.52;13.13;;;;;;;;;;5048011;28;20279;-65
2021/11/30 04:26:22;;;;;;;17.15;12.27;;;;;;;;;;5052392;28;20516;-65
2021/11/30 04:28:48;;;;;;;16.20;12.35;;;;;;;;;;5050247;28;20058;-66
2021/11/30 04:31:15;;;;;;;17.75;10.50;;;;;;;;;;5058785;28;20529;-65
2021/11/30 04:33:41;;;;;;;14.38;11.18;;;;;;;;;;5058286;28;20527;-65
2021/11/30 04:36:08;;;;;;;16.10;10.73;;;;;;;;;;5050692;28;20063;-65
2021/11/30 04:38:35;;;;;;;14.30;10.80;;;;;;;;;;5053369;28;20074;-65
2021/11/30 04:41:01;;;;;;;14.45;10.73;;;;;;;;;;5045579;28;20052;-66
2021/11/30 04:43:37;;;;;;;16.40;11.32;;;;;;;;;;5057929;28;20049;-66
2021/11/30 04:46:10;;;;;;;15.75;10.48;;;;;;;;;;5050208;28;20052;-66
2021/11/30 04:48:39;;;;;;;13.68;9.90;;;;;;;;;;5060139;28;20053;-66
2021/11/30 04:51:09;;;;;;;12.45;8.85;;;;;;;;;;5053633;28;20059;-66
2021/11/30 04:53:36;;;;;;;14.00;9.38;;;;;;;;;;5053903;28;20040;-66
2021/11/30 04:56:02;;;;;;;10.85;8.32;;;;;;;;;;5061310;28;20059;-66
2021/11/30 04:58:29;;;;;;;11.20;8.75;;;;;;;;;;5053186;28;20040;-66
2021/11/30 05:00:55;;;;;;;11.05;7.30;;;;;;;;;;5060436;28;20063;-66
2021/11/30 05:03:22;;;;;;;9.05;7.28;;;;;;;;;;5056120;28;20044;-66
2021/11/30 05:05:48;;;;;;;8.35;6.40;;;;;;;;;;5056056;28;20040;-65
2021/11/30 05:08:15;;;;;;;7.45;5.68;;;;;;;;;;5050221;28;20044;-65
2021/11/30 05:10:41;;;;;;;8.55;5.90;;;;;;;;;;5060123;28;20060;-65
2021/11/30 05:13:08;;;;;;;7.05;5.60;;;;;;;;;;5061611;28;20049;-65
2021/11/30 05:15:34;;;;;;;8.02;6.07;;;;;;;;;;5055172;28;20053;-64
2021/11/30 05:18:00;;;;;;;7.53;5.05;;;;;;;;;;5057547;28;20067;-65
2021/11/30 05:20:27;;;;;;;6.65;5.10;;;;;;;;;;5046409;28;20128;-64
2021/11/30 05:22:54;;;;;;;7.90;5.43;;;;;;;;;;5059767;28;20139;-64
2021/11/30 05:25:21;;;;;;;7.68;5.80;;;;;;;;;;5053240;28;20056;-64
2021/11/30 05:27:49;;;;;;;7.07;5.15;;;;;;;;;;5059961;28;20076;-65
2021/11/30 05:30:18;;;;;;;6.32;4.95;;;;;;;;;;5060715;28;20048;-64
2021/11/30 05:32:45;;;;;;;7.25;4.97;;;;;;;;;;5047126;28;20055;-66
2021/11/30 05:35:11;;;;;;;7.85;5.28;;;;;;;;;;5055321;28;20049;-65
2021/11/30 05:37:38;;;;;;;7.20;6.05;;;;;;;;;;5051948;28;20040;-64
2021/11/30 05:40:04;;;;;;;8.23;6.20;;;;;;;;;;5060919;28;20037;-65
2021/11/30 05:42:31;;;;;;;8.93;6.45;;;;;;;;;;5052980;28;20044;-66
2021/11/30 05:44:57;;;;;;;9.45;6.53;;;;;;;;;;5060173;28;20055;-65
2021/11/30 05:47:23;;;;;;;9.93;6.20;;;;;;;;;;5056702;28;20051;-64
2021/11/30 05:49:50;;;;;;;8.60;5.97;;;;;;;;;;5049635;28;20361;-66
2021/11/30 05:52:16;;;;;;;11.70;6.63;;;;;;;;;;5060329;28;20063;-67
2021/11/30 05:54:43;;;;;;;8.77;6.10;;;;;;;;;;5052211;28;20580;-67
2021/11/30 05:57:16;;;;;;;8.25;5.65;;;;;;;;;;5060275;28;20052;-67
2021/11/30 05:59:44;;;;;;;8.05;5.90;;;;;;;;;;5049032;28;20138;-66
2021/11/30 06:02:10;;;;;;;7.03;5.15;;;;;;;;;;5051545;28;20453;-66
2021/11/30 06:04:37;;;;;;;7.65;5.53;;;;;;;;;;5059113;28;20043;-65
2021/11/30 06:07:03;;;;;;;9.18;6.22;;;;;;;;;;5053361;28;20052;-67
2021/11/30 06:09:33;;;;;;;11.45;6.20;;;;;;;;;;5059922;28;20041;-67
2021/11/30 06:11:59;;;;;;;8.48;6.05;;;;;;;;;;5054018;28;20044;-67
2021/11/30 06:14:26;;;;;;;8.63;5.65;;;;;;;;;;5057597;28;20044;-67
2021/11/30 06:16:52;;;;;;;8.30;6.22;;;;;;;;;;5049748;28;20048;-67
2021/11/30 06:19:20;;;;;;;9.43;6.47;;;;;;;;;;5060967;28;20090;-67
2021/11/30 06:21:47;;;;;;;7.40;5.88;;;;;;;;;;5059227;28;20071;-66
2021/11/30 06:24:14;;;;;;;8.45;5.68;;;;;;;;;;5054389;28;20051;-67
2021/11/30 06:26:40;;;;;;;9.63;6.45;;;;;;;;;;5061185;28;20052;-67
2021/11/30 06:29:07;;;;;;;9.13;6.30;;;;;;;;;;5048856;28;20106;-67
2021/11/30 06:31:37;;;;;;;8.35;5.88;;;;;;;;;;5055090;28;20528;-67
2021/11/30 06:34:03;;;;;;;8.95;6.28;;;;;;;;;;5050064;28;20126;-66
2021/11/30 06:36:29;;;;;;;8.10;5.75;;;;;;;;;;5058113;28;20052;-67
2021/11/30 06:38:58;;;;;;;10.25;6.30;;;;;;;;;;5057949;28;20055;-66
2021/11/30 06:41:24;;;;;;;11.30;7.88;;;;;;;;;;5046963;28;20509;-66
2021/11/30 06:43:51;;;;;;;11.00;7.50;;;;;;;;;;5053315;28;20458;-66
2021/11/30 06:46:21;;;;;;;13.02;8.93;;;;;;;;;;5050414;28;20057;-66
2021/11/30 06:48:47;;;;;;;10.95;8.02;;;;;;;;;;5059334;28;20103;-66
2021/11/30 06:51:14;;;;;;;11.93;7.70;;;;;;;;;;5050774;28;20056;-66
2021/11/30 06:53:41;;;;;;;11.05;7.50;;;;;;;;;;5056134;28;20044;-66
2021/11/30 06:56:07;;;;;;;10.57;7.25;;;;;;;;;;5053108;28;20054;-66
2021/11/30 06:58:34;;;;;;;8.98;6.38;;;;;;;;;;5045965;28;20052;-66
2021/11/30 07:01:01;;;;;;;10.73;6.10;;;;;;;;;;5058067;28;20533;-66
2021/11/30 07:03:27;;;;;;;8.68;5.68;;;;;;;;;;5050721;28;20532;-66
2021/11/30 07:06:01;;;;;;;7.20;4.95;;;;;;;;;;5058278;28;20075;-66
2021/11/30 07:08:49;;;;;;;10.52;5.53;;;;;;;;;;5051660;28;20063;-66
2021/11/30 07:11:22;;;;;;;7.88;5.28;;;;;;;;;;5051377;28;20060;-66
2021/11/30 07:13:48;;;;;;;6.85;4.97;;;;;;;;;;5048504;28;20056;-64
2021/11/30 07:16:15;;;;;;;8.95;5.03;;;;;;;;;;5059332;28;20240;-65
2021/11/30 07:18:41;;;;;;;9.30;5.22;;;;;;;;;;5059050;28;20044;-64
2021/11/30 07:21:08;;;;;;;8.75;5.95;;;;;;;;;;5053287;28;20049;-65
2021/11/30 07:23:35;;;;;;;10.00;5.50;;;;;;;;;;5055537;28;20046;-64
2021/11/30 07:26:02;;;;;;;8.88;4.95;;;;;;;;;;5048906;28;20425;-65
2021/11/30 07:28:29;;;;;;;9.10;5.63;;;;;;;;;;5059538;28;20519;-65
2021/11/30 07:30:57;;;;;;;11.15;5.60;;;;;;;;;;5051797;28;20056;-65
2021/11/30 07:33:23;;;;;;;11.68;5.32;;;;;;;;;;5058867;28;20045;-64
2021/11/30 07:35:50;;;;;;;10.00;5.28;;;;;;;;;;5058337;28;20272;-64
2021/11/30 07:38:17;;;;;;;10.88;5.20;;;;;;;;;;5043610;28;20068;-64
2021/11/30 07:40:43;;;;;;;11.25;5.65;;;;;;;;;;5053454;28;20168;-63
2021/11/30 07:43:10;;;;;;;14.73;5.80;;;;;;;;;;5050947;28;20399;-65
2021/11/30 07:45:36;;;;;;;10.68;5.43;;;;;;;;;;5056472;28;20627;-64
2021/11/30 07:48:03;;;;;;;10.82;6.10;;;;;;;;;;5052372;28;20147;-65
2021/11/30 07:50:29;;;;;;;14.43;6.28;;;;;;;;;;5060485;28;20044;-65
2021/11/30 07:52:55;;;;;;;13.27;6.07;;;;;;;;;;5051085;28;20040;-64
2021/11/30 07:55:22;;;;;;;13.60;6.53;;;;;;;;;;5052042;28;20044;-64
2021/11/30 07:57:48;;;;;;;15.77;6.47;;;;;;;;;;5059546;28;20048;-64
2021/11/30 08:00:16;;;;;;;14.40;6.90;;;;;;;;;;5051503;28;20055;-64
2021/11/30 08:02:43;;;;;;;16.20;6.80;;;;;;;;;;5057892;28;20060;-64
2021/11/30 08:05:10;;;;;;;13.15;5.65;;;;;;;;;;5048359;28;20056;-63
2021/11/30 08:07:37;;;;;;;14.20;6.18;;;;;;;;;;5054517;28;21292;-64
2021/11/30 08:10:07;;;;;;;10.75;6.05;;;;;;;;;;5052653;28;20045;-64
2021/11/30 08:12:34;;;;;;;17.15;6.07;;;;;;;;;;5058350;28;20064;-64
2021/11/30 08:15:00;;;;;;;11.95;5.63;;;;;;;;;;5060031;28;20045;-64
2021/11/30 08:17:26;;;;;;;16.02;5.93;;;;;;;;;;5050145;28;20071;-64
2021/11/30 08:19:53;;;;;;;13.20;5.57;;;;;;;;;;5050803;28;20053;-64
2021/11/30 08:22:19;;;;;;;13.55;6.25;;;;;;;;;;5051905;28;20058;-64
2021/11/30 08:24:45;;;;;;;10.10;4.63;;;;;;;;;;5060426;28;20052;-65
2021/11/30 08:27:13;;;;;;;12.10;5.93;;;;;;;;;;5055121;28;20040;-64
2021/11/30 08:29:40;;;;;;;11.82;5.32;;;;;;;;;;5062028;28;20063;-65
2021/11/30 08:32:08;;;;;;;13.20;4.97;;;;;;;;;;5061051;28;20409;-65
2021/11/30 08:34:35;;;;;;;8.68;4.50;;;;;;;;;;5049775;28;20493;-65
2021/11/30 08:37:02;;;;;;;8.30;4.03;;;;;;;;;;5062898;28;20464;-65
2021/11/30 08:39:29;;;;;;;8.77;4.45;;;;;;;;;;5056837;28;20040;-65
2021/11/30 08:41:55;;;;;;;12.07;4.57;;;;;;;;;;5062570;28;20390;-64
2021/11/30 08:44:25;;;;;;;10.95;4.38;;;;;;;;;;5054464;28;20102;-65
2021/11/30 08:46:52;;;;;;;10.85;4.57;;;;;;;;;;5054154;28;20060;-65
2021/11/30 08:49:18;;;;;;;11.48;4.03;;;;;;;;;;5061780;28;20060;-65
2021/11/30 08:51:45;;;;;;;10.52;4.22;;;;;;;;;;5053564;28;20053;-65
2021/11/30 08:54:12;;;;;;;12.77;4.60;;;;;;;;;;5061855;28;20047;-65
2021/11/30 08:56:38;;;;;;;8.35;3.88;;;;;;;;;;5053274;28;20075;-65
2021/11/30 08:59:05;;;;;;;10.82;3.70;;;;;;;;;;5057372;28;20552;-65
2021/11/30 09:01:32;;;;;;;8.63;3.58;;;;;;;;;;5048892;28;20052;-65
2021/11/30 09:03:58;;;;;;;12.32;3.67;;;;;;;;;;5061556;28;20105;-65
2021/11/30 09:06:26;;;;;;;10.82;3.75;;;;;;;;;;5061527;28;20056;-65
2021/11/30 09:08:52;;;;;;;9.18;3.45;;;;;;;;;;5052532;28;20071;-65
2021/11/30 09:11:19;;;;;;;8.00;3.47;;;;;;;;;;5061530;28;20052;-65
2021/11/30 09:13:49;;;;;;;7.30;3.15;;;;;;;;;;5050617;28;20037;-65
2021/11/30 09:16:16;;;;;;;7.47;3.58;;;;;;;;;;5055671;28;20830;-65
2021/11/30 09:18:43;;;;;;;11.98;3.97;;;;;;;;;;5053094;28;20445;-65
2021/11/30 09:21:10;;;;;;;10.55;3.55;;;;;;;;;;5061259;28;20528;-65
2021/11/30 09:23:36;;;;;;;10.27;3.17;;;;;;;;;;5061928;28;20090;-65
2021/11/30 09:26:03;;;;;;;7.28;3.00;;;;;;;;;;5055392;28;20083;-65
2021/11/30 09:28:29;;;;;;;8.15;3.03;;;;;;;;;;5055710;28;20051;-65
2021/11/30 09:30:55;;;;;;;5.20;2.28;;;;;;;;;;5033912;28;20818;-65
2021/11/30 09:33:39;;;;;;;10.65;2.60;;;;;;;;;;5061798;28;20055;-65
2021/11/30 09:36:06;;;;;;;8.25;3.00;;;;;;;;;;5055645;28;20669;-65
2021/11/30 09:38:34;;;;;;;5.68;2.40;;;;;;;;;;5061770;28;20120;-65
2021/11/30 09:41:02;;;;;;;8.50;2.40;;;;;;;;;;5053980;28;20056;-65
2021/11/30 09:43:47;;;;;;;6.10;2.05;;;;;;;;;;5057291;28;20131;-65
2021/11/30 09:46:13;;;;;;;6.53;2.50;;;;;;;;;;5062078;28;20048;-65
2021/11/30 09:48:39;;;;;;;7.20;2.80;;;;;;;;;;5054666;28;20057;-65
2021/11/30 09:51:06;;;;;;;8.65;2.50;;;;;;;;;;5061613;28;20198;-65
2021/11/30 09:53:33;;;;;;;6.43;1.98;;;;;;;;;;5054920;28;20078;-65
2021/11/30 09:55:59;;;;;;;3.67;2.20;;;;;;;;;;5054594;28;20048;-65
2021/11/30 09:58:26;;;;;;;7.35;2.35;;;;;;;;;;5052759;28;20052;-64
2021/11/30 10:00:53;;;;;;;4.15;1.85;;;;;;;;;;5061252;28;20064;-65
2021/11/30 10:03:21;;;;;;;4.43;1.80;;;;;;;;;;5061880;28;20140;-66
2021/11/30 10:05:48;;;;;;;5.93;1.85;;;;;;;;;;5055267;28;20547;-65
2021/11/30 10:08:33;;;;;;;3.90;1.60;;;;;;;;;;5040547;28;20056;-65
2021/11/30 10:11:10;;;;;;;5.43;1.70;;;;;;;;;;5038077;28;20084;-65
2021/11/30 10:13:36;;;;;;;4.70;1.80;;;;;;;;;;5060980;28;20498;-65
2021/11/30 10:16:06;;;;;;;2.75;1.50;;;;;;;;;;5055115;28;20045;-65
2021/11/30 10:18:34;;;;;;;5.53;1.60;;;;;;;;;;5057769;28;20045;-65
2021/11/30 10:21:03;;;;;;;1.98;0.70;;;;;;;;;;5050053;28;20425;-65
2021/11/30 10:23:42;;;;;;;1.27;0.60;;;;;;;;;;5060940;28;20056;-65
2021/11/30 10:26:09;;;;;;;2.35;0.50;;;;;;;;;;5061213;28;20051;-65
2021/11/30 10:28:35;;;;;;;2.78;0.52;;;;;;;;;;5054669;28;20045;-65
2021/11/30 10:31:01;;;;;;;0.60;0.40;;;;;;;;;;5061111;28;20045;-65
2021/11/30 10:33:28;;;;;;;2.00;0.43;;;;;;;;;;5047413;28;20489;-65
2021/11/30 10:35:56;;;;;;;1.27;0.40;;;;;;;;;;5060682;28;20049;-65
2021/11/30 10:38:36;;;;;;;0.30;0.30;;;;;;;;;;5035623;28;20089;-65
2021/11/30 10:41:16;;;;;;;1.35;0.32;;;;;;;;;;5061009;28;20059;-65
2021/11/30 10:43:52;;;;;;;0.55;0.55;;;;;;;;;;5054689;28;20048;-65
2021/11/30 10:46:23;;;;;;;0.98;0.30;;;;;;;;;;5055897;28;20060;-65
2021/11/30 10:48:49;;;;;;;0.43;0.30;;;;;;;;;;5055828;28;20071;-65
2021/11/30 10:51:16;;;;;;;1.50;0.30;;;;;;;;;;5053217;28;20053;-65
2021/11/30 10:53:44;;;;;;;0.85;0.32;;;;;;;;;;5059700;28;20053;-65
2021/11/30 10:56:10;;;;;;;2.77;0.40;;;;;;;;;;5054089;28;20379;-65
2021/11/30 10:58:38;;;;;;;0.73;0.47;;;;;;;;;;5055309;28;20558;-65
2021/11/30 11:01:10;;;;;;;1.45;0.40;;;;;;;;;;5049450;28;20044;-65
2021/11/30 11:03:37;;;;;;;1.08;0.30;;;;;;;;;;5059243;28;20048;-65
2021/11/30 11:08:50;;;;;;;0.30;0.30;;;;;;;;;;5058655;28;20426;-65
2021/11/30 11:11:19;;;;;;;0.95;0.30;;;;;;;;;;5053768;28;20127;-65
2021/11/30 11:13:46;;;;;;;1.67;0.35;;;;;;;;;;5045669;28;20048;-65
2021/11/30 11:16:19;;;;;;;1.52;0.40;;;;;;;;;;5040294;28;20055;-65
2021/11/30 11:18:46;;;;;;;0.80;0.30;;;;;;;;;;5052834;28;20079;-65
2021/11/30 11:21:14;;;;;;;0.90;0.38;;;;;;;;;;5058011;28;20055;-65
2021/11/30 11:23:42;;;;;;;3.15;0.40;;;;;;;;;;5047896;28;20048;-64
2021/11/30 11:26:18;;;;;;;1.40;0.40;;;;;;;;;;5051401;28;20698;-64
2021/11/30 11:28:45;;;;;;;5.72;0.75;;;;;;;;;;5058137;28;20044;-64
2021/11/30 11:31:11;;;;;;;0.52;0.47;;;;;;;;;;5051347;28;20051;-64
2021/11/30 11:33:38;;;;;;;3.30;0.60;;;;;;;;;;5038586;28;20504;-64
2021/11/30 11:36:05;;;;;;;4.13;0.60;;;;;;;;;;5048896;28;20494;-64
2021/11/30 11:38:32;;;;;;;5.18;0.80;;;;;;;;;;5052626;28;20056;-65
2021/11/30 11:40:59;;;;;;;3.45;0.68;;;;;;;;;;5045616;28;20410;-64
2021/11/30 11:43:26;;;;;;;3.80;0.57;;;;;;;;;;5058726;28;20052;-64
2021/11/30 11:45:53;;;;;;;5.10;0.70;;;;;;;;;;5054101;28;20076;-64
2021/11/30 11:48:25;;;;;;;4.75;0.60;;;;;;;;;;5055664;28;20041;-65
2021/11/30 11:50:53;;;;;;;2.50;0.73;;;;;;;;;;5057557;28;20048;-65
2021/11/30 11:53:24;;;;;;;3.83;0.70;;;;;;;;;;5044583;28;20100;-65
2021/11/30 11:56:08;;;;;;;5.13;0.98;;;;;;;;;;5055064;28;20486;-65
2021/11/30 11:58:35;;;;;;;1.55;0.52;;;;;;;;;;5053108;28;20044;-64
2021/11/30 12:01:02;;;;;;;3.50;0.60;;;;;;;;;;5062651;28;20242;-64
2021/11/30 12:03:47;;;;;;;3.47;0.80;;;;;;;;;;5055658;28;20052;-65
2021/11/30 12:06:20;;;;;;;3.92;0.80;;;;;;;;;;5059784;28;20513;-64
2021/11/30 12:09:05;;;;;;;2.92;1.10;;;;;;;;;;5053446;28;20178;-64
2021/11/30 12:11:35;;;;;;;4.65;1.42;;;;;;;;;;5062120;28;20055;-64
2021/11/30 12:14:16;;;;;;;5.05;0.77;;;;;;;;;;5062137;28;20489;-65
2021/11/30 12:17:03;;;;;;;3.47;0.68;;;;;;;;;;5057003;28;20052;-65
2021/11/30 12:19:43;;;;;;;6.82;0.80;;;;;;;;;;5057590;28;20052;-65
2021/11/30 12:22:12;;;;;;;5.22;0.80;;;;;;;;;;5050917;28;20054;-65
2021/11/30 12:24:41;;;;;;;5.82;0.93;;;;;;;;;;5062649;28;20139;-65
2021/11/30 12:27:13;;;;;;;2.28;0.65;;;;;;;;;;5057790;28;20059;-65
2021/11/30 12:29:40;;;;;;;3.95;0.60;;;;;;;;;;5062870;28;20584;-65
2021/11/30 12:32:14;;;;;;;2.83;0.57;;;;;;;;;;5055968;28;20052;-65
2021/11/30 12:34:47;;;;;;;3.53;0.70;;;;;;;;;;5047442;28;20143;-64
2021/11/30 12:37:16;;;;;;;2.55;0.68;;;;;;;;;;5046790;28;20143;-64
2021/11/30 12:39:54;;;;;;;1.90;0.82;;;;;;;;;;5057969;28;20489;-65
2021/11/30 12:42:20;;;;;;;4.53;0.73;;;;;;;;;;5057535;28;20106;-65
2021/11/30 12:44:48;;;;;;;2.50;1.05;;;;;;;;;;5049758;28;20075;-64
2021/11/30 12:47:32;;;;;;;3.00;0.70;;;;;;;;;;5054219;28;20389;-65
2021/11/30 12:49:59;;;;;;;2.28;0.60;;;;;;;;;;5043641;28;20060;-65
2021/11/30 12:52:30;;;;;;;1.63;0.77;;;;;;;;;;5059482;28;20537;-65
2021/11/30 12:54:59;;;;;;;3.88;0.80;;;;;;;;;;5055010;28;20057;-65
2021/11/30 12:57:28;;;;;;;2.15;0.80;;;;;;;;;;5060118;28;20425;-65
2021/11/30 12:59:56;;;;;;;2.33;0.60;;;;;;;;;;5051316;28;20101;-65
2021/11/30 13:02:34;;;;;;;1.20;0.60;;;;;;;;;;5052390;28;20298;-65
2021/11/30 13:05:08;;;;;;;2.25;0.70;;;;;;;;;;5060369;28;20445;-65
2021/11/30 13:07:56;;;;;;;2.22;1.55;;;;;;;;;;5053342;28;20088;-64
2021/11/30 13:10:22;;;;;;;;;;;;;;;;;;5049859;28;20044;-64
2021/11/30 13:12:49;;;;;;;3.05;0.73;;;;;;;;;;5048874;28;19935;-65
2021/11/30 13:15:18;;;;;;;1.13;0.70;;;;;;;;;;5054864;28;20045;-65
2021/11/30 13:17:44;;;;;;;3.60;0.90;;;;;;;;;;5047920;28;20040;-65
2021/11/30 13:20:12;;;;;;;2.65;0.90;;;;;;;;;;5059127;28;20485;-65
2021/11/30 13:22:43;;;;;;;2.80;0.90;;;;;;;;;;5051054;28;20071;-64
2021/11/30 13:25:30;;;;;;;2.85;0.93;;;;;;;;;;5058955;28;20086;-64
2021/11/30 13:27:58;;;;;;;1.25;0.70;;;;;;;;;;5054691;28;20045;-65
2021/11/30 13:30:26;;;;;;;1.70;0.68;;;;;;;;;;5045435;28;20498;-65
2021/11/30 13:32:54;;;;;;;1.87;0.83;;;;;;;;;;5057951;28;20417;-65
2021/11/30 13:35:22;;;;;;;3.55;0.77;;;;;;;;;;5050108;28;20049;-65
2021/11/30 13:37:49;;;;;;;;;;;;;;;;;;5056650;28;20040;-65
2021/11/30 13:40:15;;;;;;;1.92;1.15;;;;;;;;;;5050543;28;19924;-65
2021/11/30 13:42:49;;;;;;;1.23;0.80;;;;;;;;;;5053508;28;20059;-64
2021/11/30 13:45:17;;;;;;;1.33;0.65;;;;;;;;;;5053341;28;20132;-64
2021/11/30 13:47:45;;;;;;;2.38;0.70;;;;;;;;;;5050069;28;20058;-65
2021/11/30 13:50:11;;;;;;;2.17;0.80;;;;;;;;;;5057723;28;20053;-64
2021/11/30 13:52:37;;;;;;;1.48;0.85;;;;;;;;;;5049739;28;20162;-64
2021/11/30 13:55:05;;;;;;;2.25;1.17;;;;;;;;;;5057725;28;20422;-65
2021/11/30 13:57:34;;;;;;;2.63;1.30;;;;;;;;;;5045387;28;20048;-65
2021/11/30 14:00:03;;;;;;;2.15;1.10;;;;;;;;;;5058896;28;20078;-65
2021/11/30 14:02:37;;;;;;;3.08;1.20;;;;;;;;;;5059670;28;20044;-64
2021/11/30 14:05:04;;;;;;;2.08;1.10;;;;;;;;;;5057937;28;20125;-64
2021/11/30 14:07:33;;;;;;;1.85;1.20;;;;;;;;;;5060200;28;20058;-64
2021/11/30 14:10:00;;;;;;;3.50;1.20;;;;;;;;;;5030347;28;20056;-65
2021/11/30 14:12:26;;;;;;;2.08;0.88;;;;;;;;;;5054803;28;20041;-64
2021/11/30 14:14:53;;;;;;;1.90;0.77;;;;;;;;;;5051647;28;20056;-64
2021/11/30 14:17:21;;;;;;;1.80;0.85;;;;;;;;;;5057959;28;20052;-64
2021/11/30 14:19:49;;;;;;;0.57;0.55;;;;;;;;;;5048568;28;20482;-64
2021/11/30 14:22:19;;;;;;;1.50;0.80;;;;;;;;;;5056545;28;20052;-65
2021/11/30 14:24:48;;;;;;;2.65;0.73;;;;;;;;;;5053532;28;20060;-65
2021/11/30 14:27:15;;;;;;;1.48;0.70;;;;;;;;;;5046767;28;20067;-64
2021/11/30 14:29:45;;;;;;;1.15;0.70;;;;;;;;;;5057608;28;20055;-64
2021/11/30 14:32:15;;;;;;;1.35;0.68;;;;;;;;;;5049811;28;20425;-65
2021/11/30 14:34:43;;;;;;;1.73;0.70;;;;;;;;;;5058435;28;20059;-64
2021/11/30 14:37:29;;;;;;;1.48;0.68;;;;;;;;;;5044802;28;20049;-64
2021/11/30 14:40:08;;;;;;;1.92;0.60;;;;;;;;;;5054399;28;20067;-65
2021/11/30 14:42:36;;;;;;;1.08;0.60;;;;;;;;;;5049586;28;20135;-64
2021/11/30 14:45:17;;;;;;;0.93;0.70;;;;;;;;;;5056793;28;20157;-64
2021/11/30 14:47:45;;;;;;;0.70;0.65;;;;;;;;;;5058691;28;20055;-64
2021/11/30 14:50:12;;;;;;;1.02;0.63;;;;;;;;;;5049013;28;20132;-64